createdAt,value
2023-01-13T00:00:10.599Z,101010.91
2023-01-13T00:03:14.686Z,101016.78
2023-01-13T00:06:20.487Z,101023.94
2023-01-13T00:09:23.129Z,101013.81
2023-01-13T00:12:26.036Z,101011.81
2023-01-13T00:15:28.632Z,101020.72
2023-01-13T00:18:32.263Z,101015.63
2023-01-13T00:21:36.537Z,101014.59
2023-01-13T00:24:39.389Z,101019.03
2023-01-13T00:27:41.938Z,101012.34
2023-01-13T00:30:45.030Z,101009.87
2023-01-13T00:33:51.265Z,101015.22
2023-01-13T00:36:54.099Z,101011.53
2023-01-13T00:39:57.986Z,101020.94
2023-01-13T00:43:19.780Z,101021.97
2023-01-13T00:46:23.027Z,101032.53
2023-01-13T00:49:25.974Z,101033.28
2023-01-13T00:52:28.506Z,101031.91
2023-01-13T00:55:32.393Z,101033.66
2023-01-13T00:58:36.471Z,101034.88
2023-01-13T01:01:41.077Z,101040.84
2023-01-13T01:04:43.856Z,101026.41
2023-01-13T01:07:46.658Z,101031.31
2023-01-13T01:10:49.440Z,101041.72
2023-01-13T01:13:54.259Z,101029.63
2023-01-13T01:16:56.845Z,101038.84
2023-01-13T01:19:59.665Z,101033.78
2023-01-13T01:23:02.302Z,101042.69
2023-01-13T01:26:08.196Z,101022.84
2023-01-13T01:29:17.215Z,101033.28
2023-01-13T01:32:20.051Z,101027.81
2023-01-13T01:35:23.692Z,101022.19
2023-01-13T01:38:26.603Z,101015.84
2023-01-13T01:41:32.067Z,101008.19
2023-01-13T01:45:00.381Z,101001.97
2023-01-13T01:48:04.945Z,100993.16
2023-01-13T01:51:11.516Z,100994.19
2023-01-13T01:54:24.959Z,100988.25
2023-01-13T01:57:39.760Z,100982.66
2023-01-13T02:00:42.923Z,100983.16
2023-01-13T02:03:54.197Z,100980.59
2023-01-13T02:06:57.752Z,100975.81
2023-01-13T02:10:05.045Z,100975.44
2023-01-13T02:13:12.226Z,100979.66
2023-01-13T02:16:19.531Z,100977.78
2023-01-13T02:19:37.573Z,100985.84
2023-01-13T02:22:52.337Z,100985.56
2023-01-13T02:26:10.816Z,100989.66
2023-01-13T02:30:16.124Z,100987.53
2023-01-13T02:33:49.457Z,100979.13
2023-01-13T02:37:05.954Z,100981.75
2023-01-13T02:40:20.857Z,100986.37
2023-01-13T02:43:51.930Z,100978.94
2023-01-13T02:47:08.646Z,100980.25
2023-01-13T02:50:17.542Z,100981.56
2023-01-13T02:53:25.675Z,100975.28
2023-01-13T02:56:30.737Z,100966.03
2023-01-13T02:59:35.101Z,100964.50
2023-01-13T03:02:38.880Z,100941.44
2023-01-13T03:05:44.385Z,100964.88
2023-01-13T03:08:55.178Z,100958.59
2023-01-13T03:14:01.954Z,100952.72
2023-01-13T03:17:05.186Z,100952.72
2023-01-13T03:20:22.218Z,100954.84
2023-01-13T03:23:33.366Z,100967.25
2023-01-13T03:26:51.823Z,100957.34
2023-01-13T03:30:07.680Z,100938.31
2023-01-13T03:33:17.865Z,100954.34
2023-01-13T03:36:25.826Z,100947.66
2023-01-13T03:39:34.536Z,100944.81
2023-01-13T03:42:41.647Z,100948.47
2023-01-13T03:45:49.300Z,100956.84
2023-01-13T03:48:55.953Z,100962.16
2023-01-13T03:52:14.615Z,100962.25
2023-01-13T03:55:28.680Z,100956.91
2023-01-13T03:58:39.512Z,100970.62
2023-01-13T04:01:57.353Z,100974.19
2023-01-13T04:05:04.159Z,100973.53
2023-01-13T04:08:26.318Z,100968.87
2023-01-13T04:11:41.581Z,100957.66
2023-01-13T04:14:45.386Z,100959.28
2023-01-13T04:17:48.465Z,100946.91
2023-01-13T04:20:53.427Z,100954.12
2023-01-13T04:23:56.507Z,100940.19
2023-01-13T04:26:59.122Z,100957.31
2023-01-13T04:30:02.340Z,100942.09
2023-01-13T04:33:05.592Z,100953.66
2023-01-13T04:36:08.723Z,100936.66
2023-01-13T04:39:11.320Z,100953.59
2023-01-13T04:42:14.427Z,100952.09
2023-01-13T04:45:17.181Z,100953.13
2023-01-13T04:48:20.144Z,100957.41
2023-01-13T04:51:22.860Z,100957.22
2023-01-13T04:54:25.763Z,100960.09
2023-01-13T04:57:28.739Z,100954.91
2023-01-13T05:00:33.028Z,100948.28
2023-01-13T05:03:35.547Z,100937.47
2023-01-13T05:06:38.431Z,100945.63
2023-01-13T05:09:41.556Z,100949.06
2023-01-13T05:13:03.325Z,100951.31
2023-01-13T05:16:26.342Z,100950.84
2023-01-13T05:19:31.802Z,100955.87
2023-01-13T05:22:52.737Z,100963.94
2023-01-13T05:25:55.736Z,100967.38
2023-01-13T05:28:58.435Z,100964.88
2023-01-13T05:32:02.731Z,100974.06
2023-01-13T05:35:05.744Z,100970.69
2023-01-13T05:38:08.997Z,100977.16
2023-01-13T05:41:30.173Z,100962.56
2023-01-13T05:44:33.138Z,100968.06
2023-01-13T05:47:35.814Z,100972.09
2023-01-13T05:50:38.908Z,100973.50
2023-01-13T05:53:41.586Z,100973.22
2023-01-13T05:56:44.495Z,100980.03
2023-01-13T05:59:47.070Z,100979.53
2023-01-13T06:02:50.267Z,100978.22
2023-01-13T06:05:58.590Z,100976.91
2023-01-13T06:09:01.284Z,100972.69
2023-01-13T06:12:05.391Z,100977.88
2023-01-13T06:15:08.420Z,100971.34
2023-01-13T06:18:11.481Z,100960.00
2023-01-13T06:21:15.226Z,100971.28
2023-01-13T06:24:18.532Z,100969.47
2023-01-13T06:27:23.098Z,100949.75
2023-01-13T06:30:32.681Z,100971.38
2023-01-13T06:33:44.694Z,100967.94
2023-01-13T06:36:52.514Z,100968.41
2023-01-13T06:39:58.652Z,100970.25
2023-01-13T06:43:17.972Z,100966.31
2023-01-13T06:46:21.774Z,100970.72
2023-01-13T06:49:24.892Z,100979.13
2023-01-13T06:52:30.522Z,100966.53
2023-01-13T06:55:34.022Z,100981.22
2023-01-13T06:58:36.981Z,100972.37
2023-01-13T07:01:40.631Z,100971.75
2023-01-13T07:04:44.523Z,100982.25
2023-01-13T07:07:47.439Z,100984.75
2023-01-13T07:10:51.367Z,100983.47
2023-01-13T07:14:13.333Z,100996.41
2023-01-13T07:17:16.097Z,100987.09
2023-01-13T07:20:19.553Z,100975.25
2023-01-13T07:23:23.308Z,100965.38
2023-01-13T07:26:26.290Z,100976.56
2023-01-13T07:29:29.036Z,100987.84
2023-01-13T07:32:33.261Z,100967.03
2023-01-13T07:35:35.925Z,100984.16
2023-01-13T07:38:39.998Z,100981.44
2023-01-13T07:42:03.555Z,100978.81
2023-01-13T07:45:09.782Z,100977.09
2023-01-13T07:48:13.833Z,100989.03
2023-01-13T08:04:24.821Z,100989.84
2023-01-13T08:07:28.100Z,100992.16
2023-01-13T08:10:31.709Z,100985.94
2023-01-13T08:13:35.970Z,100984.34
2023-01-13T08:16:38.881Z,100981.22
2023-01-13T08:19:41.815Z,100982.00
2023-01-13T08:22:44.593Z,100987.13
2023-01-13T08:25:47.831Z,100970.66
2023-01-13T08:28:50.386Z,100987.00
2023-01-13T08:31:55.375Z,100986.19
2023-01-13T08:34:58.130Z,100987.78
2023-01-13T08:38:01.042Z,100988.75
2023-01-13T08:41:15.446Z,100989.22
2023-01-13T08:44:18.386Z,100987.16
2023-01-13T08:47:21.327Z,100975.00
2023-01-13T08:50:24.367Z,100992.75
2023-01-13T08:53:27.161Z,101000.75
2023-01-13T08:56:32.762Z,101001.88
2023-01-13T08:59:37.269Z,100997.69
2023-01-13T09:02:40.723Z,101006.06
2023-01-13T09:05:43.382Z,100997.09
2023-01-13T09:08:47.631Z,100993.66
2023-01-13T09:12:10.499Z,100998.53
2023-01-13T09:15:13.685Z,100997.72
2023-01-13T09:18:16.463Z,100997.06
2023-01-13T09:21:21.146Z,101001.38
2023-01-13T09:24:24.827Z,100999.00
2023-01-13T09:27:27.699Z,101006.66
2023-01-13T09:30:30.742Z,101001.38
2023-01-13T09:33:52.372Z,100998.03
2023-01-13T09:36:55.050Z,100999.47
2023-01-13T09:39:58.199Z,100995.78
2023-01-13T09:43:52.647Z,100982.22
2023-01-13T09:47:00.549Z,100979.97
2023-01-13T09:50:15.356Z,100965.41
2023-01-13T09:53:33.903Z,100974.16
2023-01-13T09:56:36.532Z,100970.16
2023-01-13T09:59:40.267Z,100968.87
2023-01-13T10:03:01.758Z,100952.09
2023-01-13T10:06:18.170Z,100963.22
2023-01-13T10:09:37.098Z,100958.06
2023-01-13T10:12:59.414Z,100951.22
2023-01-13T10:16:11.301Z,100949.53
2023-01-13T10:19:38.990Z,100946.31
2023-01-13T10:22:48.226Z,100943.53
2023-01-13T10:25:57.242Z,100931.72
2023-01-13T10:29:00.301Z,100932.81
2023-01-13T10:32:03.655Z,100926.69
2023-01-13T10:35:06.623Z,100922.31
2023-01-13T10:38:17.891Z,100924.47
2023-01-13T10:41:29.274Z,100909.31
2023-01-13T10:44:32.372Z,100896.28
2023-01-13T10:47:37.266Z,100905.06
2023-01-13T10:50:40.695Z,100897.75
2023-01-13T10:53:56.638Z,100903.72
2023-01-13T10:57:20.364Z,100908.56
2023-01-13T11:00:31.837Z,100874.44
2023-01-13T11:03:41.684Z,100879.22
2023-01-13T11:06:47.015Z,100882.13
2023-01-13T11:10:22.559Z,100880.78
2023-01-13T11:13:34.323Z,100867.75
2023-01-13T11:16:47.377Z,100863.09
2023-01-13T11:20:19.815Z,100868.22
2023-01-13T11:23:34.370Z,100862.00
2023-01-13T11:26:51.128Z,100853.53
2023-01-13T11:30:20.081Z,100856.84
2023-01-13T11:33:38.109Z,100855.94
2023-01-13T11:36:48.053Z,100856.44
2023-01-13T11:40:03.881Z,100859.88
2023-01-13T11:43:22.901Z,100862.28
2023-01-13T11:46:27.682Z,100853.75
2023-01-13T11:49:33.409Z,100846.84
2023-01-13T11:52:58.246Z,100844.34
2023-01-13T11:56:10.456Z,100845.81
2023-01-13T11:59:35.208Z,100843.97
2023-01-13T12:02:54.105Z,100843.63
2023-01-13T12:06:32.191Z,100849.00
2023-01-13T12:10:03.922Z,100842.53
2023-01-13T12:13:21.813Z,100833.84
2023-01-13T12:16:30.617Z,100831.59
2023-01-13T12:19:33.916Z,100829.56
2023-01-13T12:22:37.775Z,100830.00
2023-01-13T12:25:46.574Z,100828.75
2023-01-13T12:29:02.930Z,100817.19
2023-01-13T12:32:12.764Z,100825.22
2023-01-13T12:35:37.807Z,100818.94
2023-01-13T12:38:50.816Z,100807.16
2023-01-13T12:42:29.306Z,100807.81
2023-01-13T12:45:33.934Z,100810.56
2023-01-13T12:49:05.952Z,100801.47
2023-01-13T12:52:13.802Z,100794.84
2023-01-13T12:55:36.612Z,100799.87
2023-01-13T12:58:39.465Z,100799.66
2023-01-13T13:01:42.822Z,100783.59
2023-01-13T13:04:49.796Z,100787.34
2023-01-13T13:08:06.409Z,100780.19
2023-01-13T13:11:34.146Z,100758.69
2023-01-13T13:14:39.856Z,100771.06
2023-01-13T13:17:44.633Z,100774.62
2023-01-13T13:21:10.642Z,100766.22
2023-01-13T13:24:13.652Z,100760.53
2023-01-13T13:27:25.821Z,100770.53
2023-01-13T13:30:36.145Z,100774.84
2023-01-13T13:33:59.004Z,100770.31
2023-01-13T13:37:14.310Z,100763.38
2023-01-13T13:40:35.583Z,100762.00
2023-01-13T13:44:02.426Z,100758.03
2023-01-13T13:47:06.523Z,100758.94
2023-01-13T13:50:20.822Z,100758.38
2023-01-13T13:53:30.090Z,100756.78
2023-01-13T13:56:40.362Z,100749.72
2023-01-13T13:59:43.077Z,100749.50
2023-01-13T14:02:52.986Z,100751.19
2023-01-13T14:06:02.073Z,100753.81
2023-01-13T14:09:04.594Z,100752.56
2023-01-13T14:12:16.809Z,100733.13
2023-01-13T14:15:35.089Z,100739.63
2023-01-13T14:18:48.219Z,100743.09
2023-01-13T14:21:50.784Z,100748.91
2023-01-13T14:24:55.555Z,100752.34
2023-01-13T14:28:03.831Z,100749.72
2023-01-13T14:31:09.394Z,100751.22
2023-01-13T14:34:31.008Z,100735.66
2023-01-13T14:37:39.930Z,100727.56
2023-01-13T14:40:45.780Z,100741.87
2023-01-13T14:43:50.071Z,100744.12
2023-01-13T14:46:55.910Z,100740.22
2023-01-13T14:50:02.672Z,100739.91
2023-01-13T14:53:46.834Z,100746.69
2023-01-13T14:57:06.439Z,100747.03
2023-01-13T15:00:15.260Z,100753.91
2023-01-13T15:03:21.204Z,100757.84
2023-01-13T15:06:26.173Z,100753.66
2023-01-13T15:09:38.822Z,100739.88
2023-01-13T15:12:41.505Z,100743.25
2023-01-13T15:15:50.820Z,100755.37
2023-01-13T15:18:55.287Z,100750.91
2023-01-13T15:21:58.122Z,100758.41
2023-01-13T15:25:00.706Z,100768.09
2023-01-13T15:28:04.905Z,100766.13
2023-01-13T15:31:07.529Z,100775.97
2023-01-13T15:34:10.380Z,100767.00
2023-01-13T15:37:17.161Z,100762.00
2023-01-13T15:40:24.917Z,100762.81
2023-01-13T15:43:46.173Z,100745.41
2023-01-13T15:46:50.593Z,100735.91
2023-01-13T15:49:54.244Z,100730.53
2023-01-13T15:52:58.222Z,100745.19
2023-01-13T15:56:00.959Z,100726.69
2023-01-13T15:59:05.596Z,100739.69
2023-01-13T16:02:12.577Z,100732.91
2023-01-13T16:05:16.351Z,100739.31
2023-01-13T16:08:21.311Z,100751.81
2023-01-13T16:11:24.291Z,100758.03
2023-01-13T16:14:26.834Z,100746.41
2023-01-13T16:17:32.051Z,100754.41
2023-01-13T16:20:35.706Z,100760.09
2023-01-13T16:23:38.583Z,100751.94
2023-01-13T16:26:41.288Z,100759.34
2023-01-13T16:29:45.122Z,100757.97
2023-01-13T16:32:47.811Z,100751.63
2023-01-13T16:36:11.846Z,100763.41
2023-01-13T16:39:22.183Z,100761.09
2023-01-13T16:42:25.049Z,100770.06
2023-01-13T16:45:28.020Z,100776.81
2023-01-13T16:48:30.995Z,100777.72
2023-01-13T16:51:33.794Z,100768.09
2023-01-13T16:54:36.801Z,100774.16
2023-01-13T16:57:39.402Z,100776.09
2023-01-13T17:00:42.389Z,100773.38
2023-01-13T17:03:49.115Z,100777.03
2023-01-13T17:07:00.515Z,100761.81
2023-01-13T17:10:03.812Z,100759.22
2023-01-13T17:13:15.568Z,100766.75
2023-01-13T17:16:22.854Z,100768.84
2023-01-13T17:19:25.985Z,100767.38
2023-01-13T17:22:30.810Z,100760.19
2023-01-13T17:25:33.687Z,100760.59
2023-01-13T17:28:36.293Z,100767.62
2023-01-13T17:31:39.399Z,100766.19
2023-01-13T17:34:43.040Z,100771.84
2023-01-13T17:37:46.124Z,100777.75
2023-01-13T17:40:48.774Z,100783.88
2023-01-13T17:43:52.945Z,100785.00
2023-01-13T17:46:55.743Z,100786.28
2023-01-13T17:49:58.893Z,100774.28
2023-01-13T17:53:01.849Z,100773.97
2023-01-13T17:56:05.109Z,100760.59
2023-01-13T17:59:10.482Z,100773.53
2023-01-13T18:02:14.560Z,100772.72
2023-01-13T18:05:17.611Z,100767.47
2023-01-13T18:08:21.700Z,100774.19
2023-01-13T18:11:25.462Z,100772.47
2023-01-13T18:14:28.442Z,100766.69
2023-01-13T18:17:31.620Z,100763.97
2023-01-13T18:20:54.646Z,100774.50
2023-01-13T18:24:16.233Z,100761.78
2023-01-13T18:27:23.947Z,100769.31
2023-01-13T18:30:26.928Z,100776.66
2023-01-13T18:33:29.581Z,100778.72
2023-01-13T18:36:32.690Z,100774.91
2023-01-13T18:39:38.351Z,100772.97
2023-01-13T18:42:59.207Z,100774.09
2023-01-13T18:46:01.922Z,100765.94
2023-01-13T18:49:05.180Z,100772.31
2023-01-13T18:52:07.908Z,100782.84
2023-01-13T18:55:11.014Z,100790.81
2023-01-13T18:58:13.927Z,100793.41
2023-01-13T19:01:17.517Z,100807.25
2023-01-13T19:04:20.402Z,100818.78
2023-01-13T19:07:26.880Z,100824.69
2023-01-13T19:10:32.634Z,100815.22
2023-01-13T19:13:36.508Z,100817.44
2023-01-13T19:16:39.503Z,100813.91
2023-01-13T19:19:44.652Z,100820.53
2023-01-13T19:22:53.959Z,100821.28
2023-01-13T19:26:01.584Z,100827.34
2023-01-13T19:29:04.592Z,100826.22
2023-01-13T19:32:08.841Z,100826.19
2023-01-13T19:35:13.211Z,100822.06
2023-01-13T19:38:16.202Z,100820.28
2023-01-13T19:41:37.413Z,100820.13
2023-01-13T19:44:59.922Z,100820.00
2023-01-13T19:48:05.806Z,100823.03
2023-01-13T19:51:09.855Z,100820.16
2023-01-13T19:54:12.446Z,100810.16
2023-01-13T19:57:15.864Z,100812.22
2023-01-13T20:00:21.069Z,100816.81
2023-01-13T20:03:30.976Z,100824.94
2023-01-13T20:06:34.001Z,100823.06
2023-01-13T20:09:37.283Z,100818.28
2023-01-13T20:12:41.716Z,100821.16
2023-01-13T20:15:45.035Z,100820.66
2023-01-13T20:18:51.698Z,100819.38
2023-01-13T20:21:54.737Z,100820.66
2023-01-13T20:24:57.301Z,100816.81
2023-01-13T20:28:02.181Z,100810.13
2023-01-13T20:31:09.759Z,100816.84
2023-01-13T20:34:14.637Z,100809.53
2023-01-13T20:37:17.176Z,100810.78
2023-01-13T20:40:20.861Z,100808.72
2023-01-13T20:43:23.496Z,100806.81
2023-01-13T20:46:26.370Z,100809.66
2023-01-13T20:49:30.316Z,100807.44
2023-01-13T20:52:33.662Z,100810.94
2023-01-13T20:55:39.959Z,100819.19
2023-01-13T20:58:44.157Z,100818.09
2023-01-13T21:01:47.011Z,100815.69
2023-01-13T21:04:50.175Z,100813.44
2023-01-13T21:07:52.933Z,100823.34
2023-01-13T21:11:02.316Z,100829.91
2023-01-13T21:14:24.385Z,100832.00
2023-01-13T21:17:45.880Z,100835.50
2023-01-13T21:20:50.859Z,100839.00
2023-01-13T21:23:54.192Z,100837.91
2023-01-13T21:26:59.788Z,100842.03
2023-01-13T21:30:03.018Z,100851.16
2023-01-13T21:33:06.699Z,100853.97
2023-01-13T21:36:13.278Z,100844.56
2023-01-13T21:39:16.134Z,100842.50
2023-01-13T21:42:37.559Z,100847.44
2023-01-13T21:45:59.487Z,100847.25
2023-01-13T21:49:03.084Z,100850.47
2023-01-13T21:52:05.917Z,100853.09
2023-01-13T21:55:28.640Z,100861.25
2023-01-13T21:58:31.332Z,100865.62
2023-01-13T22:01:34.354Z,100872.81
2023-01-13T22:04:37.610Z,100871.66
2023-01-13T22:07:41.220Z,100869.62
2023-01-13T22:10:57.951Z,100878.31
2023-01-13T22:14:07.526Z,100879.56
2023-01-13T22:17:14.041Z,100877.78
2023-01-13T22:20:19.236Z,100880.50
2023-01-13T22:23:22.254Z,100876.63
2023-01-13T22:26:25.354Z,100877.50
2023-01-13T22:29:28.246Z,100868.75
2023-01-13T22:32:30.817Z,100878.59
2023-01-13T22:35:33.695Z,100878.31
2023-01-13T22:38:36.499Z,100885.09
2023-01-13T22:41:39.500Z,100898.91
2023-01-13T22:44:43.231Z,100905.47
2023-01-13T22:47:46.205Z,100905.84
2023-01-13T22:50:49.899Z,100909.59
2023-01-13T22:53:54.007Z,100907.78
2023-01-13T22:56:56.661Z,100910.56
2023-01-13T22:59:59.608Z,100907.38
2023-01-13T23:03:05.642Z,100903.28
2023-01-13T23:06:09.020Z,100895.06
2023-01-13T23:09:11.645Z,100889.25
2023-01-13T23:12:14.813Z,100903.38
2023-01-13T23:15:17.928Z,100903.09
2023-01-13T23:18:20.904Z,100913.84
2023-01-13T23:21:26.760Z,100916.06
2023-01-13T23:24:29.873Z,100901.13
2023-01-13T23:27:32.574Z,100902.44
2023-01-13T23:30:39.416Z,100908.69
2023-01-13T23:33:43.504Z,100900.91
2023-01-13T23:36:46.475Z,100902.03
2023-01-13T23:39:49.524Z,100898.37
2023-01-13T23:42:52.481Z,100890.78
2023-01-13T23:46:07.517Z,100891.69
2023-01-13T23:49:10.620Z,100882.94
2023-01-13T23:52:13.569Z,100875.28
2023-01-13T23:55:16.950Z,100879.03
2023-01-13T23:58:19.641Z,100880.87
